Time;durP1;ratioP1;P1;durP2;ratioP2;P2;SDS_P1;SDS_P2;PMS_P1;PMS_P2;Temp;Humidity;BMP_temperature;BMP_pressure;BME280_temperature;BME280_humidity;BME280_pressure;Samples;Min_cycle;Max_cycle;Signal;HPM_P1;HPM_P2
2022/06/25 00:00:39;;;;;;;11.35;10.32;;;21.00;99.30;;;;;;4938332;28;92887;-71
2022/06/25 00:03:06;;;;;;;11.82;10.93;;;21.00;99.60;;;;;;4938174;28;101155;-72
2022/06/25 00:05:33;;;;;;;12.25;11.25;;;21.00;99.50;;;;;;4938007;28;93120;-71
2022/06/25 00:08:00;;;;;;;11.45;10.55;;;20.90;99.60;;;;;;4937753;28;93160;-71
2022/06/25 00:10:27;;;;;;;11.63;10.73;;;20.90;99.60;;;;;;4936720;28;94832;-71
2022/06/25 00:12:54;;;;;;;11.75;10.75;;;20.80;99.60;;;;;;4936768;28;93019;-72
2022/06/25 00:15:21;;;;;;;11.40;10.50;;;20.80;99.60;;;;;;4936446;28;93318;-71
2022/06/25 00:17:48;;;;;;;10.65;9.75;;;20.80;99.60;;;;;;4936591;28;95598;-71
2022/06/25 00:20:15;;;;;;;9.82;9.02;;;20.70;99.60;;;;;;4938297;28;92449;-72
2022/06/25 00:22:42;;;;;;;10.32;9.63;;;20.70;99.60;;;;;;4937035;28;92539;-71
2022/06/25 00:25:09;;;;;;;11.40;10.60;;;20.60;99.60;;;;;;4937152;28;93206;-71
2022/06/25 00:27:36;;;;;;;10.68;9.77;;;20.60;99.60;;;;;;4937013;28;93103;-71
2022/06/25 00:30:05;;;;;;;10.15;9.27;;;20.60;99.60;;;;;;4938512;28;92750;-72
2022/06/25 00:32:33;;;;;;;10.20;9.40;;;20.50;99.70;;;;;;4936734;28;92495;-71
2022/06/25 00:35:00;;;;;;;9.38;8.00;;;20.50;99.90;;;;;;4936930;28;95662;-72
2022/06/25 00:37:27;;;;;;;10.43;9.70;;;20.40;99.90;;;;;;4937804;28;95269;-71
2022/06/25 00:39:54;;;;;;;10.75;9.93;;;20.40;99.90;;;;;;4936626;28;92521;-71
2022/06/25 00:42:21;;;;;;;11.00;9.57;;;20.40;99.90;;;;;;4938000;28;92435;-71
2022/06/25 00:44:48;;;;;;;9.23;8.38;;;20.40;99.90;;;;;;4936183;28;102973;-71
2022/06/25 00:47:15;;;;;;;10.45;9.70;;;20.30;99.90;;;;;;4920582;28;93018;-71
2022/06/25 00:49:42;;;;;;;10.82;9.93;;;20.30;99.90;;;;;;4936868;28;92498;-72
2022/06/25 00:52:15;;;;;;;9.88;9.07;;;20.30;99.90;;;;;;4921155;28;91788;-71
2022/06/25 00:54:49;;;;;;;11.55;10.63;;;20.30;99.90;;;;;;4936613;28;96036;-71
2022/06/25 00:57:20;;;;;;;10.13;9.43;;;20.30;99.90;;;;;;4919749;28;95543;-71
2022/06/25 00:59:50;;;;;;;10.35;9.55;;;20.30;99.90;;;;;;4935378;28;94893;-71
2022/06/25 01:02:18;;;;;;;11.20;10.13;;;20.30;99.90;;;;;;4936262;28;92585;-71
2022/06/25 01:04:45;;;;;;;9.90;9.10;;;20.30;99.90;;;;;;4919751;28;95914;-71
2022/06/25 01:07:12;;;;;;;10.40;9.70;;;20.30;99.90;;;;;;4935984;28;94561;-71
2022/06/25 01:09:40;;;;;;;9.88;9.18;;;20.20;99.90;;;;;;4935838;28;92467;-71
2022/06/25 01:12:07;;;;;;;9.80;8.80;;;20.20;99.90;;;;;;4938033;28;93036;-71
2022/06/25 01:14:35;;;;;;;10.77;9.77;;;20.20;99.90;;;;;;4936149;28;95608;-71
2022/06/25 01:17:06;;;;;;;11.27;10.38;;;20.20;99.90;;;;;;4936598;28;95315;-71
2022/06/25 01:19:34;;;;;;;10.73;9.77;;;20.10;99.90;;;;;;4919633;28;92624;-71
2022/06/25 01:22:05;;;;;;;12.50;11.43;;;20.10;99.90;;;;;;4936218;28;92514;-71
2022/06/25 01:24:33;;;;;;;11.40;10.50;;;20.10;99.90;;;;;;4933957;28;97985;-71
2022/06/25 01:27:00;;;;;;;12.40;11.30;;;20.00;99.90;;;;;;4935281;28;96470;-71
2022/06/25 01:29:27;;;;;;;12.98;11.88;;;20.00;99.90;;;;;;4919537;28;93030;-71
2022/06/25 01:31:54;;;;;;;12.43;11.43;;;20.00;99.90;;;;;;4935020;28;101477;-71
2022/06/25 01:34:22;;;;;;;12.18;11.05;;;19.90;99.90;;;;;;4919253;28;95740;-71
2022/06/25 01:36:49;;;;;;;11.30;10.25;;;19.90;99.90;;;;;;4903626;28;95656;-71
2022/06/25 01:39:16;;;;;;;12.60;11.70;;;19.90;99.90;;;;;;4935426;28;92427;-71
2022/06/25 01:41:43;;;;;;;12.07;11.10;;;19.90;99.90;;;;;;4935555;28;91855;-71
2022/06/25 01:44:12;;;;;;;13.48;12.38;;;19.90;99.90;;;;;;4935253;28;94838;-71
2022/06/25 01:46:39;;;;;;;13.38;12.00;;;19.80;99.90;;;;;;4934657;28;95581;-71
2022/06/25 01:49:10;;;;;;;12.93;11.82;;;19.80;99.90;;;;;;4918716;28;94968;-71
2022/06/25 01:51:37;;;;;;;12.70;11.52;;;19.80;99.90;;;;;;4935054;28;92530;-71
2022/06/25 01:54:04;;;;;;;12.98;11.85;;;19.80;99.90;;;;;;4919334;28;93223;-71
2022/06/25 01:56:32;;;;;;;13.95;12.85;;;19.70;99.90;;;;;;4936154;28;93157;-71
2022/06/25 01:58:59;;;;;;;14.88;13.77;;;19.70;99.90;;;;;;4934931;28;92432;-71
2022/06/25 02:01:26;;;;;;;13.95;12.75;;;19.70;99.90;;;;;;4918844;28;92530;-71
2022/06/25 02:03:53;;;;;;;13.75;12.57;;;19.60;99.90;;;;;;4935015;28;95726;-71
2022/06/25 02:06:20;;;;;;;15.43;14.13;;;19.60;99.90;;;;;;4918913;28;95759;-71
2022/06/25 02:08:47;;;;;;;14.07;12.88;;;19.60;99.90;;;;;;4936340;28;92405;-71
2022/06/25 02:11:16;;;;;;;14.15;12.90;;;19.60;99.90;;;;;;4919179;28;92729;-71
2022/06/25 02:13:43;;;;;;;13.73;12.52;;;19.50;99.90;;;;;;4933274;28;98131;-71
2022/06/25 02:16:10;;;;;;;13.60;12.32;;;19.60;99.90;;;;;;4934593;28;96515;-71
2022/06/25 02:18:37;;;;;;;13.52;12.18;;;19.60;99.90;;;;;;4934724;28;92849;-71
2022/06/25 02:21:04;;;;;;;14.25;13.13;;;19.50;99.90;;;;;;4936145;28;92328;-71
2022/06/25 02:23:32;;;;;;;13.93;12.68;;;19.50;99.90;;;;;;4933717;28;96011;-71
2022/06/25 02:25:58;;;;;;;13.85;12.65;;;19.40;99.90;;;;;;4935913;28;93093;-71
2022/06/25 02:28:25;;;;;;;14.48;13.15;;;19.40;99.90;;;;;;4918812;28;92935;-71
2022/06/25 02:30:52;;;;;;;15.00;13.88;;;19.40;99.90;;;;;;4935096;28;91789;-71
2022/06/25 02:33:19;;;;;;;14.57;13.35;;;19.40;99.90;;;;;;4934856;28;95656;-71
2022/06/25 02:35:46;;;;;;;14.85;13.55;;;19.40;99.90;;;;;;4934390;28;95612;-71
2022/06/25 02:38:16;;;;;;;15.68;14.25;;;19.40;99.90;;;;;;4917799;28;94918;-71
2022/06/25 02:40:47;;;;;;;14.93;13.63;;;19.30;99.90;;;;;;4934565;28;92514;-71
2022/06/25 02:43:15;;;;;;;14.45;13.25;;;19.30;99.90;;;;;;4934338;28;95491;-71
2022/06/25 02:45:46;;;;;;;15.23;13.75;;;19.30;99.90;;;;;;4934235;28;94939;-71
2022/06/25 02:48:14;;;;;;;15.80;14.40;;;19.30;99.90;;;;;;4918624;28;92545;-71
2022/06/25 02:50:42;;;;;;;14.95;13.68;;;19.30;99.90;;;;;;4934481;28;93155;-71
2022/06/25 02:53:11;;;;;;;16.45;15.05;;;19.20;99.90;;;;;;4918103;28;95402;-71
2022/06/25 03:01:11;;;;;;;16.67;15.23;;;19.20;99.90;;;;;;4934412;28;92506;-71
2022/06/25 03:03:38;;;;;;;17.10;15.70;;;19.20;99.90;;;;;;4932459;28;98153;-71
2022/06/25 03:06:05;;;;;;;18.67;16.77;;;19.10;99.90;;;;;;4934027;28;97853;-71
2022/06/25 03:08:32;;;;;;;16.10;14.55;;;19.10;99.90;;;;;;4933982;28;92515;-71
2022/06/25 03:10:59;;;;;;;18.40;16.58;;;19.10;99.90;;;;;;4935641;28;93061;-71
2022/06/25 03:13:29;;;;;;;17.35;15.75;;;19.10;99.90;;;;;;4934133;28;95811;-71
2022/06/25 03:15:56;;;;;;;17.95;16.42;;;19.10;99.90;;;;;;4918092;28;95405;-71
2022/06/25 03:18:23;;;;;;;17.45;15.75;;;19.10;99.90;;;;;;4918227;28;92585;-71
2022/06/25 03:21:08;;;;;;;17.92;16.23;;;19.10;99.90;;;;;;4934183;28;92635;-71
2022/06/25 03:23:36;;;;;;;16.13;14.55;;;19.10;99.90;;;;;;4917694;28;95428;-71
2022/06/25 03:26:03;;;;;;;18.10;16.48;;;19.10;99.90;;;;;;4918074;28;93923;-71
2022/06/25 03:28:31;;;;;;;17.83;16.33;;;19.10;99.90;;;;;;4932825;28;94942;-71
2022/06/25 03:30:59;;;;;;;16.52;15.05;;;19.10;99.90;;;;;;4934080;28;92562;-71
2022/06/25 03:33:26;;;;;;;16.45;15.05;;;19.10;99.90;;;;;;4935150;28;95984;-71
2022/06/25 03:36:14;;;;;;;17.58;15.88;;;19.10;99.90;;;;;;4910646;28;95426;-71
2022/06/25 03:38:43;;;;;;;15.82;14.50;;;19.10;99.90;;;;;;4938642;28;92899;-71
2022/06/25 03:44:11;;;;;;;16.27;14.82;;;19.10;99.90;;;;;;4925343;28;95363;-71
2022/06/25 03:46:40;;;;;;;15.25;13.95;;;19.10;99.90;;;;;;4921195;28;95491;-71
2022/06/25 03:49:07;;;;;;;15.60;14.10;;;19.20;99.90;;;;;;4937079;28;92426;-71
2022/06/25 03:51:49;;;;;;;12.65;11.55;;;19.20;99.90;;;;;;4922887;28;92495;-71
2022/06/25 03:54:17;;;;;;;13.30;11.95;;;19.20;99.90;;;;;;4919579;28;98174;-71
2022/06/25 03:56:44;;;;;;;11.90;10.85;;;19.50;99.90;;;;;;4936552;28;97790;-71
2022/06/25 03:59:11;;;;;;;12.57;11.57;;;20.10;99.90;;;;;;4937038;28;93514;-71
2022/06/25 04:01:38;;;;;;;11.98;10.98;;;20.70;99.90;;;;;;4920701;28;92531;-72
2022/06/25 04:04:06;;;;;;;11.93;10.98;;;21.10;99.90;;;;;;4936520;28;94324;-71
2022/06/25 04:06:33;;;;;;;12.05;11.05;;;21.60;99.30;;;;;;4936385;28;95216;-71
2022/06/25 04:09:03;;;;;;;11.93;10.55;;;21.90;98.50;;;;;;4936754;28;92966;-71
2022/06/25 04:11:31;;;;;;;10.82;9.85;;;21.90;98.00;;;;;;4921216;28;91924;-71
2022/06/25 04:13:59;;;;;;;12.65;11.65;;;21.90;97.80;;;;;;4937054;28;95638;-71
2022/06/25 04:16:26;;;;;;;12.13;11.13;;;21.70;97.80;;;;;;4936336;28;95285;-72
2022/06/25 04:18:56;;;;;;;11.65;10.75;;;21.50;97.90;;;;;;4919666;28;94820;-71
2022/06/25 04:21:29;;;;;;;11.07;10.18;;;21.40;98.10;;;;;;4936562;28;92504;-71
2022/06/25 04:23:56;;;;;;;11.18;10.20;;;21.20;98.30;;;;;;4936030;28;95454;-71
2022/06/25 04:26:27;;;;;;;11.35;10.45;;;21.10;98.40;;;;;;4936310;28;95512;-71
2022/06/25 04:29:08;;;;;;;12.95;11.85;;;21.00;98.50;;;;;;4936132;28;92576;-71
2022/06/25 04:31:39;;;;;;;10.25;9.40;;;21.00;98.60;;;;;;4935744;28;92429;-71
2022/06/25 04:34:15;;;;;;;12.70;10.60;;;20.90;98.70;;;;;;4921757;28;94941;-71
2022/06/25 04:36:43;;;;;;;11.45;10.45;;;20.80;98.80;;;;;;4936370;28;95331;-71
2022/06/25 04:39:24;;;;;;;11.50;10.48;;;20.80;98.90;;;;;;4921865;28;92567;-71
2022/06/25 04:41:51;;;;;;;10.90;10.00;;;20.80;99.00;;;;;;4936103;28;92504;-71
2022/06/25 04:44:24;;;;;;;11.68;10.57;;;20.80;99.00;;;;;;4934325;28;98252;-71
2022/06/25 04:46:53;;;;;;;10.68;9.70;;;20.80;99.10;;;;;;4920086;28;97454;-71
2022/06/25 04:49:30;;;;;;;11.38;10.38;;;20.80;99.10;;;;;;4936635;28;92473;-71
2022/06/25 04:51:58;;;;;;;12.52;11.43;;;20.80;99.10;;;;;;4935833;28;92969;-71
2022/06/25 04:54:25;;;;;;;10.75;9.68;;;20.80;99.10;;;;;;4935949;28;95558;-71
2022/06/25 04:56:58;;;;;;;11.75;10.88;;;20.80;99.10;;;;;;4936416;28;95529;-71
2022/06/25 04:59:25;;;;;;;11.05;10.05;;;20.80;99.20;;;;;;4920095;28;92561;-71
2022/06/25 05:02:00;;;;;;;11.38;10.43;;;20.80;99.10;;;;;;4936067;28;91765;-71
2022/06/25 05:04:35;;;;;;;12.30;11.15;;;20.90;99.20;;;;;;4935825;28;95385;-71
2022/06/25 05:07:02;;;;;;;10.68;9.85;;;21.00;99.20;;;;;;4919100;28;95632;-71
2022/06/25 05:09:29;;;;;;;10.57;9.65;;;21.10;99.00;;;;;;4935223;28;94831;-71
2022/06/25 05:11:56;;;;;;;9.10;8.30;;;21.10;99.00;;;;;;4936394;28;93120;-71
2022/06/25 05:14:23;;;;;;;11.32;10.55;;;21.20;98.90;;;;;;4936152;28;95664;-71
2022/06/25 05:16:50;;;;;;;11.02;10.23;;;21.30;98.90;;;;;;4919182;28;95376;-71
2022/06/25 05:19:17;;;;;;;10.32;9.43;;;21.40;98.70;;;;;;4935744;28;92454;-71
2022/06/25 05:21:44;;;;;;;9.88;8.98;;;21.40;98.60;;;;;;4937719;28;93027;-71
2022/06/25 05:24:12;;;;;;;11.00;10.10;;;21.50;98.50;;;;;;4936048;28;95422;-71
2022/06/25 05:26:39;;;;;;;8.90;8.20;;;21.50;98.40;;;;;;4935743;28;95742;-71
2022/06/25 05:29:06;;;;;;;9.32;8.43;;;21.60;98.40;;;;;;4919939;28;92516;-71
2022/06/25 05:31:33;;;;;;;9.63;8.93;;;21.70;98.30;;;;;;4935921;28;92552;-71
2022/06/25 05:34:00;;;;;;;9.63;8.82;;;21.90;97.90;;;;;;4934506;28;98326;-71
2022/06/25 05:36:27;;;;;;;8.70;8.00;;;22.10;97.70;;;;;;4919944;28;95431;-71
2022/06/25 05:38:54;;;;;;;8.00;7.20;;;22.20;97.50;;;;;;4935972;28;92586;-71
2022/06/25 05:41:22;;;;;;;9.02;8.23;;;22.30;97.40;;;;;;4936067;28;92648;-71
2022/06/25 05:43:48;;;;;;;8.60;7.90;;;22.40;97.30;;;;;;4935972;28;93540;-71
2022/06/25 05:46:15;;;;;;;7.90;7.30;;;22.50;97.30;;;;;;4935996;28;92850;-71
2022/06/25 05:48:42;;;;;;;7.25;6.65;;;22.60;96.90;;;;;;4936198;28;92802;-71
2022/06/25 05:51:09;;;;;;;7.43;6.93;;;22.70;96.70;;;;;;4936096;28;91744;-71
2022/06/25 05:53:41;;;;;;;9.00;8.23;;;22.80;96.60;;;;;;4936138;28;93406;-71
2022/06/25 05:56:07;;;;;;;8.15;7.35;;;22.80;96.50;;;;;;4936192;28;92943;-71
2022/06/25 05:58:34;;;;;;;7.35;6.78;;;22.80;96.30;;;;;;4933819;28;94913;-71
2022/06/25 06:01:01;;;;;;;9.52;8.93;;;23.00;96.20;;;;;;4937090;28;92912;-71
2022/06/25 06:03:28;;;;;;;8.20;7.63;;;23.00;96.10;;;;;;4935247;28;95893;-71
2022/06/25 06:05:55;;;;;;;7.88;7.15;;;23.10;96.10;;;;;;4919107;28;95410;-71
2022/06/25 06:08:22;;;;;;;6.97;6.47;;;23.10;96.10;;;;;;4935724;28;92885;-71
2022/06/25 06:10:49;;;;;;;6.95;6.18;;;23.10;95.80;;;;;;4937284;28;92484;-71
2022/06/25 06:13:16;;;;;;;7.95;7.22;;;23.20;95.80;;;;;;4935044;28;95715;-71
2022/06/25 06:15:43;;;;;;;8.50;6.70;;;23.20;95.70;;;;;;4937261;28;92981;-71
2022/06/25 06:18:10;;;;;;;7.35;6.75;;;23.30;95.80;;;;;;4935298;28;92498;-71
2022/06/25 06:20:37;;;;;;;6.80;6.30;;;23.30;95.70;;;;;;4935589;28;95500;-71
2022/06/25 06:23:05;;;;;;;8.68;7.95;;;23.40;95.60;;;;;;4935200;28;95640;-71
2022/06/25 06:25:32;;;;;;;7.57;6.88;;;23.40;95.40;;;;;;4935148;28;96614;-71
2022/06/25 06:27:59;;;;;;;6.70;6.13;;;23.40;95.30;;;;;;4919230;28;92362;-71
2022/06/25 06:30:26;;;;;;;7.65;6.68;;;23.50;95.20;;;;;;4935611;28;92497;-71
2022/06/25 06:32:56;;;;;;;7.20;6.50;;;23.50;95.20;;;;;;4935120;28;95867;-71
2022/06/25 06:35:23;;;;;;;8.20;7.60;;;23.50;95.00;;;;;;4936526;28;93132;-71
2022/06/25 06:37:50;;;;;;;7.93;7.07;;;23.60;95.00;;;;;;4935265;28;92456;-71
2022/06/25 06:40:17;;;;;;;7.15;6.45;;;23.70;95.00;;;;;;4935591;28;92353;-71
2022/06/25 06:42:44;;;;;;;7.53;6.22;;;23.80;94.90;;;;;;4936245;28;93819;-71
2022/06/25 06:45:11;;;;;;;9.13;7.70;;;23.90;94.80;;;;;;4936136;28;92977;-71
2022/06/25 06:47:38;;;;;;;7.22;6.72;;;23.90;94.70;;;;;;4933782;28;94860;-71
2022/06/25 06:50:05;;;;;;;7.57;6.18;;;24.00;94.60;;;;;;4935089;28;92483;-72
2022/06/25 06:52:33;;;;;;;7.40;6.80;;;24.20;94.40;;;;;;4934863;28;94776;-72
2022/06/25 06:55:01;;;;;;;7.05;6.45;;;24.30;94.20;;;;;;4934624;28;93406;-71
2022/06/25 06:57:28;;;;;;;6.70;6.05;;;24.40;94.00;;;;;;4936081;28;92924;-71
2022/06/25 06:59:58;;;;;;;7.72;6.65;;;24.50;93.90;;;;;;4919022;28;92493;-71
2022/06/25 07:02:26;;;;;;;6.82;6.28;;;24.50;93.60;;;;;;4936191;28;93019;-71
2022/06/25 07:04:53;;;;;;;7.45;6.35;;;24.50;93.50;;;;;;4934897;28;95459;-72
2022/06/25 07:07:20;;;;;;;6.25;5.60;;;24.50;93.40;;;;;;4934158;28;92667;-71
2022/06/25 07:09:47;;;;;;;7.50;5.20;;;24.50;93.40;;;;;;4921876;28;92605;-72
2022/06/25 07:12:14;;;;;;;7.03;6.43;;;24.50;93.40;;;;;;4904575;28;98060;-71
2022/06/25 07:14:41;;;;;;;6.78;6.18;;;24.40;93.00;;;;;;4921676;28;98120;-71
2022/06/25 07:17:08;;;;;;;6.30;5.80;;;24.50;93.10;;;;;;4938179;28;92367;-71
2022/06/25 07:19:35;;;;;;;6.07;5.18;;;24.50;93.10;;;;;;4938101;28;92468;-71
2022/06/25 07:22:02;;;;;;;7.22;6.35;;;24.40;93.10;;;;;;4937934;28;93264;-71
2022/06/25 07:24:29;;;;;;;6.50;6.00;;;24.50;93.20;;;;;;4939242;28;93068;-71
2022/06/25 07:26:56;;;;;;;6.30;5.38;;;24.60;93.20;;;;;;4939405;28;92572;-71
2022/06/25 07:29:23;;;;;;;5.47;4.00;;;24.60;92.90;;;;;;4939555;28;91829;-71
2022/06/25 07:31:51;;;;;;;6.10;5.43;;;24.70;92.80;;;;;;4939194;28;93198;-71
2022/06/25 07:34:18;;;;;;;5.50;3.90;;;24.80;92.30;;;;;;4937532;28;95736;-71
2022/06/25 07:36:45;;;;;;;3.55;3.10;;;24.80;91.90;;;;;;4938097;28;94961;-71
2022/06/25 07:39:12;;;;;;;6.45;5.00;;;24.90;91.50;;;;;;4937592;28;97711;-71
2022/06/25 07:41:39;;;;;;;4.38;3.97;;;24.90;91.10;;;;;;4938933;28;93185;-71
2022/06/25 07:44:06;;;;;;;4.95;4.45;;;24.90;91.20;;;;;;4937220;28;94006;-71
2022/06/25 07:46:33;;;;;;;4.65;3.65;;;24.90;91.30;;;;;;4939086;28;92463;-72
2022/06/25 07:49:00;;;;;;;6.05;5.55;;;25.00;91.20;;;;;;4939153;28;92709;-72
2022/06/25 07:54:12;;;;;;;4.53;4.13;;;25.10;91.30;;;;;;4939208;28;93054;-72
2022/06/25 07:56:39;;;;;;;4.32;3.83;;;25.10;90.80;;;;;;4938945;28;92338;-71
2022/06/25 07:59:06;;;;;;;4.30;3.50;;;25.10;90.70;;;;;;4937663;28;92497;-71
2022/06/25 08:01:33;;;;;;;3.75;3.20;;;25.10;90.80;;;;;;4937319;28;95711;-72
2022/06/25 08:04:00;;;;;;;4.72;4.28;;;25.10;90.50;;;;;;4938558;28;95502;-72
2022/06/25 08:06:27;;;;;;;4.82;2.67;;;25.10;90.30;;;;;;4937338;28;93430;-72
2022/06/25 08:08:54;;;;;;;3.28;3.08;;;25.30;90.20;;;;;;4937368;28;92449;-72
2022/06/25 08:11:21;;;;;;;4.45;3.00;;;25.80;90.20;;;;;;4938528;28;93054;-72
2022/06/25 08:13:48;;;;;;;3.90;3.60;;;26.70;89.70;;;;;;4937850;28;93003;-72
2022/06/25 08:16:15;;;;;;;3.78;2.90;;;27.90;86.80;;;;;;4938126;28;97135;-72
2022/06/25 08:18:42;;;;;;;4.78;2.83;;;29.10;82.00;;;;;;4938866;28;91740;-72
2022/06/25 08:21:09;;;;;;;4.18;2.40;;;30.40;78.10;;;;;;4935749;28;96558;-72
2022/06/25 08:23:36;;;;;;;6.38;3.03;;;31.70;72.80;;;;;;4938421;28;92544;-72
2022/06/25 08:26:03;;;;;;;2.97;2.47;;;32.80;70.20;;;;;;4935866;28;94937;-72
2022/06/25 08:28:30;;;;;;;2.95;2.45;;;33.80;66.80;;;;;;4936598;28;92533;-72
2022/06/25 08:30:57;;;;;;;4.15;2.83;;;34.70;63.70;;;;;;4937009;28;93312;-72
2022/06/25 08:33:24;;;;;;;3.33;3.03;;;35.50;61.40;;;;;;4920703;28;95576;-73
2022/06/25 08:35:51;;;;;;;3.50;3.20;;;36.10;58.70;;;;;;4937047;28;92440;-73
2022/06/25 08:38:18;;;;;;;3.22;2.92;;;36.80;56.40;;;;;;4936599;28;92585;-73
2022/06/25 08:40:45;;;;;;;3.10;2.72;;;37.30;54.40;;;;;;4938131;28;93159;-73
2022/06/25 08:43:12;;;;;;;3.80;3.50;;;37.90;51.60;;;;;;4938223;28;92913;-73
2022/06/25 08:45:40;;;;;;;3.90;3.60;;;38.10;50.40;;;;;;4938275;28;92363;-73
2022/06/25 08:48:20;;;;;;;2.42;2.25;;;38.40;50.40;;;;;;4938086;28;92443;-73
2022/06/25 08:50:49;;;;;;;3.33;2.95;;;39.00;48.20;;;;;;4936848;28;95527;-73
2022/06/25 08:53:17;;;;;;;3.13;2.83;;;39.20;47.50;;;;;;4936454;28;95485;-72
2022/06/25 08:55:45;;;;;;;3.85;2.70;;;39.30;46.60;;;;;;4937431;28;104123;-73
2022/06/25 08:58:13;;;;;;;4.45;4.20;;;39.50;46.20;;;;;;4936682;28;92492;-73
2022/06/25 09:00:45;;;;;;;3.00;2.70;;;39.80;46.00;;;;;;4937818;28;93305;-73
2022/06/25 09:03:12;;;;;;;3.25;2.53;;;40.00;45.00;;;;;;4936828;28;92563;-73
2022/06/25 09:05:42;;;;;;;3.85;3.55;;;39.70;43.90;;;;;;4936526;28;92386;-73
2022/06/25 09:08:12;;;;;;;3.47;2.50;;;39.80;43.90;;;;;;4936265;28;91770;-73
2022/06/25 09:10:41;;;;;;;2.90;2.70;;;39.80;43.60;;;;;;4937430;28;93309;-73
2022/06/25 09:13:11;;;;;;;3.38;3.03;;;39.70;44.30;;;;;;4937562;28;92895;-73
2022/06/25 09:15:44;;;;;;;3.17;2.88;;;39.40;43.50;;;;;;4934930;28;94897;-73
2022/06/25 09:18:13;;;;;;;3.90;2.85;;;38.90;43.80;;;;;;4936111;28;92587;-73
2022/06/25 09:21:00;;;;;;;4.38;2.55;;;38.40;44.20;;;;;;4919708;28;95834;-72
2022/06/25 09:23:31;;;;;;;9.70;2.75;;;37.60;44.80;;;;;;4935884;28;95459;-73
2022/06/25 09:26:07;;;;;;;4.15;2.17;;;36.70;47.10;;;;;;4936489;28;92486;-72
2022/06/25 09:28:40;;;;;;;3.50;2.70;;;36.00;48.30;;;;;;4937573;28;92357;-72
2022/06/25 09:31:08;;;;;;;3.63;3.33;;;35.50;49.20;;;;;;4935751;28;97432;-72
2022/06/25 09:33:37;;;;;;;3.53;2.83;;;35.20;50.50;;;;;;4937543;28;92887;-72
2022/06/25 09:36:09;;;;;;;3.58;3.28;;;35.10;50.60;;;;;;4937543;28;92490;-72
2022/06/25 09:38:49;;;;;;;2.42;2.30;;;34.80;50.90;;;;;;4935800;28;92508;-72
2022/06/25 09:41:16;;;;;;;4.50;2.70;;;34.60;51.20;;;;;;4936224;28;95590;-72
2022/06/25 09:43:47;;;;;;;4.03;2.47;;;34.10;51.90;;;;;;4918866;28;111176;-72
2022/06/25 09:46:14;;;;;;;3.15;2.60;;;33.80;51.50;;;;;;4935866;28;92559;-72
2022/06/25 09:48:42;;;;;;;4.13;2.17;;;33.60;52.70;;;;;;4937229;28;92441;-72
2022/06/25 09:51:09;;;;;;;3.13;2.85;;;33.50;53.40;;;;;;4937175;28;93318;-72
2022/06/25 09:53:47;;;;;;;3.70;2.55;;;33.30;52.70;;;;;;4935555;28;95525;-72
2022/06/25 09:56:23;;;;;;;3.58;1.88;;;33.20;52.80;;;;;;4919831;28;93013;-72
2022/06/25 09:58:50;;;;;;;2.90;2.15;;;33.00;53.70;;;;;;4936119;28;92344;-72
2022/06/25 10:01:19;;;;;;;5.90;2.22;;;32.90;53.80;;;;;;4936868;28;92973;-72
2022/06/25 10:03:47;;;;;;;5.13;2.15;;;32.90;53.60;;;;;;4935576;28;93042;-72
2022/06/25 10:06:16;;;;;;;2.92;2.60;;;32.80;54.00;;;;;;4918427;28;94861;-72
2022/06/25 10:08:56;;;;;;;3.78;2.05;;;32.70;54.50;;;;;;4935166;28;92828;-72
2022/06/25 10:11:27;;;;;;;4.25;2.13;;;32.70;54.30;;;;;;4936934;28;92395;-72
2022/06/25 10:13:54;;;;;;;5.32;2.10;;;32.60;53.70;;;;;;4919329;28;95544;-72
2022/06/25 10:16:23;;;;;;;7.13;3.45;;;32.70;54.00;;;;;;4936944;28;92376;-72
2022/06/25 10:18:51;;;;;;;3.00;2.10;;;32.80;54.60;;;;;;4936738;28;92506;-72
2022/06/25 10:21:20;;;;;;;2.58;2.38;;;32.90;55.40;;;;;;4936557;28;93299;-72
2022/06/25 10:23:53;;;;;;;4.25;2.20;;;33.00;54.40;;;;;;4935401;28;92933;-72
2022/06/25 10:26:21;;;;;;;5.10;3.10;;;33.00;54.20;;;;;;4935681;28;92425;-72
2022/06/25 10:28:48;;;;;;;3.58;2.50;;;32.80;54.20;;;;;;4936401;28;92441;-72
2022/06/25 10:31:16;;;;;;;2.50;2.30;;;32.60;54.70;;;;;;4934033;28;95595;-72
2022/06/25 10:34:02;;;;;;;4.80;2.78;;;32.50;55.10;;;;;;4934891;28;96530;-72
2022/06/25 10:36:47;;;;;;;4.35;2.53;;;32.40;55.10;;;;;;4936516;28;92600;-72
2022/06/25 10:39:26;;;;;;;3.25;2.75;;;32.30;55.30;;;;;;4935146;28;92446;-72
2022/06/25 10:45:14;;;;;;;5.25;3.13;;;32.10;56.90;;;;;;4939909;28;92818;-72
2022/06/25 10:47:52;;;;;;;4.43;3.63;;;32.10;56.60;;;;;;4939739;28;92415;-72
2022/06/25 10:50:22;;;;;;;3.78;2.78;;;32.10;56.70;;;;;;4940200;28;91689;-72
2022/06/25 10:53:05;;;;;;;3.35;2.50;;;32.10;56.50;;;;;;4939505;28;92633;-72
2022/06/25 10:55:58;;;;;;;5.28;3.40;;;32.30;56.60;;;;;;4938356;28;94049;-72
2022/06/25 10:58:27;;;;;;;3.90;2.73;;;32.30;56.60;;;;;;4938904;28;95107;-72
2022/06/25 11:01:00;;;;;;;3.72;2.20;;;32.10;56.70;;;;;;4938059;28;92877;-72
2022/06/25 11:03:27;;;;;;;4.70;3.05;;;31.90;57.30;;;;;;4938193;28;95556;-72
2022/06/25 11:05:56;;;;;;;3.15;2.55;;;31.90;57.60;;;;;;4939318;28;92999;-72
2022/06/25 11:08:36;;;;;;;3.40;3.20;;;32.00;56.50;;;;;;4938176;28;92589;-72
2022/06/25 11:11:06;;;;;;;4.10;3.47;;;32.10;56.50;;;;;;4939565;28;92427;-71
2022/06/25 11:13:33;;;;;;;5.47;2.30;;;31.80;56.50;;;;;;4939169;28;93553;-71
2022/06/25 11:16:11;;;;;;;3.85;2.70;;;31.80;56.50;;;;;;4938656;28;92919;-72
2022/06/25 11:18:49;;;;;;;4.22;2.22;;;31.80;56.50;;;;;;4938352;28;92613;-71
2022/06/25 11:21:36;;;;;;;7.93;2.75;;;31.60;56.70;;;;;;4939825;28;92471;-72
2022/06/25 11:24:10;;;;;;;4.50;2.47;;;31.60;57.90;;;;;;4936926;28;95686;-72
2022/06/25 11:29:32;;;;;;;3.65;2.88;;;31.50;56.40;;;;;;4938022;28;93160;-72
2022/06/25 11:31:59;;;;;;;3.63;2.75;;;31.40;56.30;;;;;;4937932;28;92556;-72
2022/06/25 11:34:28;;;;;;;3.55;2.72;;;31.40;57.50;;;;;;4939102;28;93324;-71
2022/06/25 11:37:00;;;;;;;4.30;2.17;;;31.30;57.20;;;;;;4937455;28;94239;-71
2022/06/25 11:39:28;;;;;;;2.53;2.05;;;31.30;57.30;;;;;;4939470;28;92472;-72
2022/06/25 11:41:56;;;;;;;4.40;2.15;;;31.30;57.10;;;;;;4937958;28;92054;-71
2022/06/25 11:44:23;;;;;;;3.10;2.90;;;31.20;57.00;;;;;;4937393;28;94234;-71
2022/06/25 11:46:51;;;;;;;2.10;2.00;;;31.20;57.00;;;;;;4938852;28;93046;-71
2022/06/25 11:49:20;;;;;;;1.65;1.55;;;31.00;56.00;;;;;;4936612;28;94966;-71
2022/06/25 11:51:51;;;;;;;2.75;2.38;;;31.00;56.50;;;;;;4921479;28;92591;-71
2022/06/25 11:54:24;;;;;;;2.63;1.67;;;31.00;57.00;;;;;;4937378;28;95737;-72
2022/06/25 11:56:55;;;;;;;2.60;2.28;;;31.00;56.80;;;;;;4937034;28;96160;-71
2022/06/25 11:59:30;;;;;;;3.25;1.55;;;31.00;57.00;;;;;;4938006;28;93222;-71
2022/06/25 12:02:03;;;;;;;3.72;1.40;;;31.00;56.10;;;;;;4938982;28;92377;-71
2022/06/25 12:04:32;;;;;;;2.13;2.03;;;31.00;56.30;;;;;;4938794;28;93394;-71
2022/06/25 12:06:59;;;;;;;1.65;1.30;;;31.20;56.30;;;;;;4938111;28;103019;-71
2022/06/25 12:09:27;;;;;;;4.35;2.00;;;31.30;55.80;;;;;;4937627;28;92464;-71
2022/06/25 12:11:56;;;;;;;1.95;1.38;;;31.40;55.40;;;;;;4937109;28;92472;-71
2022/06/25 12:14:32;;;;;;;2.75;2.03;;;31.60;55.40;;;;;;4935949;28;98081;-71
2022/06/25 12:17:00;;;;;;;1.15;1.15;;;31.80;54.90;;;;;;4938397;28;95332;-71
2022/06/25 12:19:50;;;;;;;2.58;1.50;;;31.90;54.70;;;;;;4937375;28;92481;-71
2022/06/25 12:22:29;;;;;;;3.53;1.67;;;32.00;54.40;;;;;;4938864;28;92346;-71
2022/06/25 12:24:59;;;;;;;3.60;2.30;;;31.90;53.80;;;;;;4936632;28;96072;-71
2022/06/25 12:27:27;;;;;;;3.00;2.42;;;31.80;53.90;;;;;;4938530;28;92934;-71
2022/06/25 12:29:57;;;;;;;4.25;2.30;;;31.70;54.00;;;;;;4938422;28;92393;-71
2022/06/25 12:32:38;;;;;;;2.38;2.17;;;31.60;53.50;;;;;;4937398;28;91758;-71
2022/06/25 12:35:26;;;;;;;2.85;1.60;;;31.60;54.30;;;;;;4937959;28;93235;-71
2022/06/25 12:38:03;;;;;;;1.63;1.52;;;31.70;54.30;;;;;;4938093;28;92890;-71
2022/06/25 12:40:35;;;;;;;3.50;2.55;;;31.70;54.20;;;;;;4936334;28;95269;-71
2022/06/25 12:43:05;;;;;;;;;;;31.70;54.10;;;;;;4938742;28;92554;-71
2022/06/25 12:45:33;;;;;;;1.92;1.30;;;31.60;54.70;;;;;;4937931;28;95603;-71
2022/06/25 12:48:01;;;;;;;3.30;1.55;;;31.50;55.30;;;;;;4936296;28;95430;-71
2022/06/25 12:50:33;;;;;;;1.73;1.33;;;31.40;53.90;;;;;;4936974;28;93056;-71
2022/06/25 12:53:11;;;;;;;2.20;1.73;;;31.30;55.00;;;;;;4936564;28;92527;-71
2022/06/25 12:55:40;;;;;;;3.13;1.20;;;31.20;55.70;;;;;;4938100;28;93300;-71
2022/06/25 12:58:09;;;;;;;3.35;1.83;;;31.20;56.60;;;;;;4937973;28;92946;-71
2022/06/25 13:00:37;;;;;;;3.35;1.83;;;31.10;56.60;;;;;;4938075;28;92424;-71
2022/06/25 13:03:08;;;;;;;2.78;2.47;;;31.00;56.20;;;;;;4936324;28;92509;-71
2022/06/25 13:05:36;;;;;;;1.83;1.73;;;31.00;56.70;;;;;;4935288;28;108538;-71
2022/06/25 13:08:04;;;;;;;2.38;1.40;;;30.90;57.20;;;;;;4935856;28;95222;-71